Time;durP1;ratioP1;P1;durP2;ratioP2;P2;SDS_P1;SDS_P2;PMS_P1;PMS_P2;Temp;Humidity;BMP_temperature;BMP_pressure;BME280_temperature;BME280_humidity;BME280_pressure;Samples;Min_cycle;Max_cycle;Signal;HPM_P1;HPM_P2
2022/03/05 00:01:02;;;;;;;;;;;22.30;44.30;;;;;;5057423;28;19925;-47
2022/03/05 00:03:30;;;;;;;;;;;22.30;44.30;;;;;;5076352;28;19989;-44
2022/03/05 00:05:57;;;;;;;;;;;22.30;44.30;;;;;;5075776;28;20352;-44
2022/03/05 00:08:24;;;;;;;;;;;22.30;44.30;;;;;;5075626;28;19924;-42
2022/03/05 00:10:51;;;;;;;;;;;22.30;44.20;;;;;;5075991;28;20342;-43
2022/03/05 00:13:18;;;;;;;;;;;22.30;44.20;;;;;;5074953;28;19928;-45
2022/03/05 00:15:46;;;;;;;;;;;22.20;44.10;;;;;;5075610;28;19943;-45
2022/03/05 00:18:13;;;;;;;;;;;22.30;44.20;;;;;;5075176;28;19994;-45
2022/03/05 00:20:41;;;;;;;;;;;22.30;44.20;;;;;;5075865;28;19924;-46
2022/03/05 00:23:08;;;;;;;;;;;22.30;44.20;;;;;;5075669;28;20342;-44
2022/03/05 00:25:35;;;;;;;;;;;22.30;44.20;;;;;;5075465;28;20041;-44
2022/03/05 00:28:02;;;;;;;;;;;22.30;44.10;;;;;;5061064;28;19925;-45
2022/03/05 00:30:29;;;;;;;;;;;22.20;44.00;;;;;;5056085;28;19974;-43
2022/03/05 00:32:56;;;;;;;;;;;22.20;44.00;;;;;;5068855;28;19940;-45
2022/03/05 00:35:23;;;;;;;;;;;22.30;44.10;;;;;;5076074;28;20341;-43
2022/03/05 00:37:50;;;;;;;;;;;22.20;44.00;;;;;;5075345;28;19924;-47
2022/03/05 00:40:17;;;;;;;;;;;22.20;44.00;;;;;;5075089;28;20404;-46
2022/03/05 00:42:44;;;;;;;;;;;22.20;44.00;;;;;;5074692;28;19937;-44
2022/03/05 00:45:11;;;;;;;;;;;22.30;44.00;;;;;;5075065;28;20388;-45
2022/03/05 00:47:38;;;;;;;;;;;22.20;43.90;;;;;;5074179;28;19925;-46
2022/03/05 00:50:06;;;;;;;;;;;22.20;43.90;;;;;;5075256;28;19939;-41
2022/03/05 00:52:34;;;;;;;;;;;22.20;43.90;;;;;;5075085;28;20020;-46
2022/03/05 00:55:02;;;;;;;;;;;22.20;43.90;;;;;;5074944;28;20362;-45
2022/03/05 00:57:29;;;;;;;;;;;22.20;43.90;;;;;;5067875;28;19951;-45
2022/03/05 00:59:56;;;;;;;;;;;22.20;43.80;;;;;;5054747;28;20446;-46
2022/03/05 01:02:23;;;;;;;;;;;22.20;43.80;;;;;;5060609;28;19924;-42
2022/03/05 01:04:50;;;;;;;;;;;22.20;43.80;;;;;;5074307;28;20015;-43
2022/03/05 01:07:17;;;;;;;;;;;22.20;43.80;;;;;;5074870;28;19982;-45
2022/03/05 01:09:44;;;;;;;;;;;22.20;43.90;;;;;;5074898;28;19925;-45
2022/03/05 01:12:11;;;;;;;;;;;22.20;43.80;;;;;;5074118;28;19928;-45
2022/03/05 01:14:38;;;;;;;;;;;22.20;43.80;;;;;;5074496;28;19986;-42
2022/03/05 01:17:06;;;;;;;;;;;22.20;43.80;;;;;;5073948;28;19928;-43
2022/03/05 01:19:32;;;;;;;;;;;22.20;43.80;;;;;;5074552;28;19924;-43
2022/03/05 01:21:59;;;;;;;;;;;22.20;43.80;;;;;;5074061;28;20304;-46
2022/03/05 01:24:26;;;;;;;;;;;22.20;43.80;;;;;;5074673;28;20288;-43
2022/03/05 01:26:53;;;;;;;;;;;22.20;43.80;;;;;;5074591;28;19951;-45
2022/03/05 01:29:20;;;;;;;;;;;22.20;43.80;;;;;;5073455;28;19924;-43
2022/03/05 01:31:47;;;;;;;;;;;22.20;43.70;;;;;;5074446;28;19929;-44
2022/03/05 01:34:14;;;;;;;;;;;22.20;43.80;;;;;;5073666;28;20264;-42
2022/03/05 01:36:41;;;;;;;;;;;22.20;43.70;;;;;;5073907;28;20368;-43
2022/03/05 01:39:08;;;;;;;;;;;22.20;43.70;;;;;;5074070;28;19924;-43
2022/03/05 01:41:37;;;;;;;;;;;22.20;43.70;;;;;;5074643;28;19924;-42
2022/03/05 01:44:04;;;;;;;;;;;22.20;43.70;;;;;;5073132;28;19925;-42
2022/03/05 01:46:35;;;;;;;;;;;22.20;43.70;;;;;;5074072;28;19924;-45
2022/03/05 01:49:04;;;;;;;;;;;22.20;43.70;;;;;;5073094;28;20339;-42
2022/03/05 01:51:32;;;;;;;;;;;22.20;43.60;;;;;;5073890;28;19960;-42
2022/03/05 01:53:59;;;;;;;;;;;22.20;43.70;;;;;;5074033;28;19924;-41
2022/03/05 01:56:27;;;;;;;;;;;22.20;43.60;;;;;;5073958;28;19924;-47
2022/03/05 01:58:54;;;;;;;;;;;22.20;43.60;;;;;;5072863;28;19950;-42
2022/03/05 02:01:22;;;;;;;;;;;22.20;43.60;;;;;;5073518;28;19946;-43
2022/03/05 02:03:51;;;;;;;;;;;22.20;43.60;;;;;;5072725;28;19925;-46
2022/03/05 02:06:18;;;;;;;;;;;22.20;43.60;;;;;;5073528;28;20380;-43
2022/03/05 02:08:45;;;;;;;;;;;22.20;43.60;;;;;;5073268;28;19924;-44
2022/03/05 02:11:12;;;;;;;;;;;22.20;43.60;;;;;;5073530;28;19924;-42
2022/03/05 02:13:40;;;;;;;;;;;22.20;43.60;;;;;;5072606;28;19951;-45
2022/03/05 02:16:08;;;;;;;;;;;22.20;43.60;;;;;;5072467;28;20022;-50
2022/03/05 02:18:35;;;;;;;;;;;22.20;43.60;;;;;;5072818;28;19994;-49
2022/03/05 02:21:02;;;;;;;;;;;22.20;43.50;;;;;;5073154;28;19924;-50
2022/03/05 02:23:29;;;;;;;;;;;22.20;43.50;;;;;;5073273;28;19958;-52
2022/03/05 02:26:02;;;;;;;;;;;22.20;43.50;;;;;;5073514;28;19978;-49
2022/03/05 02:28:30;;;;;;;;;;;22.20;43.60;;;;;;5072792;28;20296;-49
2022/03/05 02:30:58;;;;;;;;;;;22.20;43.50;;;;;;5073362;28;19935;-48
2022/03/05 02:33:25;;;;;;;;;;;22.20;43.50;;;;;;5072344;28;19947;-46
2022/03/05 02:35:52;;;;;;;;;;;22.20;43.50;;;;;;5073098;28;19932;-46
2022/03/05 02:38:20;;;;;;;;;;;22.20;43.50;;;;;;5072993;28;20269;-49
2022/03/05 02:40:48;;;;;;;;;;;22.10;43.40;;;;;;5072901;28;20295;-46
2022/03/05 02:43:15;;;;;;;;;;;22.20;43.40;;;;;;5072327;28;19929;-43
2022/03/05 02:45:43;;;;;;;;;;;22.10;43.30;;;;;;5073044;28;19985;-42
2022/03/05 02:48:12;;;;;;;;;;;22.10;43.40;;;;;;5072220;28;19982;-43
2022/03/05 02:50:39;;;;;;;;;;;22.10;43.30;;;;;;5073244;28;19979;-45
2022/03/05 02:53:06;;;;;;;;;;;22.10;43.30;;;;;;5073101;28;19999;-47
2022/03/05 02:55:33;;;;;;;;;;;22.10;43.30;;;;;;5073013;28;19925;-42
2022/03/05 02:58:01;;;;;;;;;;;22.10;43.30;;;;;;5073166;28;19924;-44
2022/03/05 03:00:27;;;;;;;;;;;22.10;43.30;;;;;;5072494;28;19929;-43
2022/03/05 03:02:54;;;;;;;;;;;22.10;43.30;;;;;;5072704;28;19924;-46
2022/03/05 03:05:22;;;;;;;;;;;22.10;43.30;;;;;;5072844;28;20003;-42
2022/03/05 03:07:49;;;;;;;;;;;22.10;43.30;;;;;;5072715;28;20338;-43
2022/03/05 03:10:16;;;;;;;;;;;22.10;43.30;;;;;;5072771;28;20006;-42
2022/03/05 03:12:43;;;;;;;;;;;22.10;43.30;;;;;;5072704;28;19925;-44
2022/03/05 03:15:14;;;;;;;;;;;22.10;43.20;;;;;;5072060;28;19924;-42
2022/03/05 03:17:46;;;;;;;;;;;22.10;43.30;;;;;;5073069;28;20342;-45
2022/03/05 03:20:14;;;;;;;;;;;22.10;43.30;;;;;;5071826;28;19968;-44
2022/03/05 03:22:41;;;;;;;;;;;22.10;43.20;;;;;;5072786;28;20307;-44
2022/03/05 03:25:08;;;;;;;;;;;22.10;43.20;;;;;;5072595;28;19935;-44
2022/03/05 03:27:35;;;;;;;;;;;22.10;43.20;;;;;;5074202;28;19967;-44
2022/03/05 03:30:04;;;;;;;;;;;22.10;43.20;;;;;;5075790;28;19924;-45
2022/03/05 03:32:31;;;;;;;;;;;22.10;43.20;;;;;;5076454;28;20011;-43
2022/03/05 03:34:58;;;;;;;;;;;22.10;43.20;;;;;;5075938;28;19964;-44
2022/03/05 03:37:28;;;;;;;;;;;22.10;43.20;;;;;;5076252;28;19968;-43
2022/03/05 03:39:56;;;;;;;;;;;22.10;43.20;;;;;;5076309;28;19929;-41
2022/03/05 03:42:24;;;;;;;;;;;22.10;43.20;;;;;;5076526;28;19963;-44
2022/03/05 03:44:51;;;;;;;;;;;22.10;43.20;;;;;;5075417;28;19951;-43
2022/03/05 03:47:19;;;;;;;;;;;22.10;43.20;;;;;;5076172;28;20416;-43
2022/03/05 03:49:47;;;;;;;;;;;22.10;43.20;;;;;;5075364;28;19970;-44
2022/03/05 03:52:14;;;;;;;;;;;22.10;43.20;;;;;;5075942;28;19924;-45
2022/03/05 03:54:41;;;;;;;;;;;22.10;43.20;;;;;;5076050;28;20398;-47
2022/03/05 03:57:09;;;;;;;;;;;22.10;43.20;;;;;;5075977;28;19970;-44
2022/03/05 03:59:36;;;;;;;;;;;22.10;43.20;;;;;;5075190;28;19925;-46
2022/03/05 04:02:04;;;;;;;;;;;22.10;43.20;;;;;;5076199;28;20335;-47
2022/03/05 04:04:31;;;;;;;;;;;22.10;43.20;;;;;;5075451;28;19967;-43
2022/03/05 04:09:43;;;;;;;;;;;22.10;43.20;;;;;;5075798;28;19924;-48
2022/03/05 04:12:10;;;;;;;;;;;22.10;43.20;;;;;;5076500;28;20001;-43
2022/03/05 04:14:40;;;;;;;;;;;22.10;43.20;;;;;;5074987;28;19928;-42
2022/03/05 04:17:08;;;;;;;;;;;22.10;43.20;;;;;;5075635;28;20015;-48
2022/03/05 04:19:35;;;;;;;;;;;22.10;43.20;;;;;;5074576;28;19932;-44
2022/03/05 04:22:02;;;;;;;;;;;22.10;43.20;;;;;;5035427;28;19925;-45
2022/03/05 04:24:30;;;;;;;;;;;22.10;43.20;;;;;;5035542;28;19949;-46
2022/03/05 04:26:57;;;;;;;;;;;22.10;43.20;;;;;;5035839;28;19937;-46
2022/03/05 04:29:24;;;;;;;;;;;22.10;43.20;;;;;;5034695;28;19929;-45
2022/03/05 04:31:51;;;;;;;;;;;22.00;43.10;;;;;;5035797;28;20333;-46
2022/03/05 04:34:19;;;;;;;;;;;22.10;43.10;;;;;;5034620;28;19978;-43
2022/03/05 04:36:46;;;;;;;;;;;22.10;43.70;;;;;;5035210;28;20088;-46
2022/03/05 04:39:13;;;;;;;;;;;22.10;43.10;;;;;;5034260;28;19925;-46
2022/03/05 04:41:40;;;;;;;;;;;22.00;43.00;;;;;;5035496;28;20355;-43
2022/03/05 04:44:07;;;;;;;;;;;22.00;43.00;;;;;;5035413;28;20504;-44
2022/03/05 04:46:34;;;;;;;;;;;22.00;43.00;;;;;;5034792;28;20339;-43
2022/03/05 04:49:02;;;;;;;;;;;22.00;43.00;;;;;;5035101;28;19948;-45
2022/03/05 04:51:29;;;;;;;;;;;22.00;43.50;;;;;;5034920;28;19936;-43
2022/03/05 04:53:56;;;;;;;;;;;22.00;43.60;;;;;;5035012;28;19955;-44
2022/03/05 04:56:23;;;;;;;;;;;22.00;43.00;;;;;;5035354;28;20292;-48
2022/03/05 04:58:50;;;;;;;;;;;22.00;43.00;;;;;;5050238;28;19925;-43
2022/03/05 05:01:18;;;;;;;;;;;22.00;43.00;;;;;;5034376;28;20037;-45
2022/03/05 05:03:46;;;;;;;;;;;22.00;43.00;;;;;;5035187;28;19964;-44
2022/03/05 05:06:14;;;;;;;;;;;22.00;43.00;;;;;;5034088;28;19926;-43
2022/03/05 05:08:41;;;;;;;;;;;22.00;43.00;;;;;;5034661;28;19925;-47
2022/03/05 05:11:08;;;;;;;;;;;22.00;43.00;;;;;;5034743;28;19925;-47
2022/03/05 05:13:35;;;;;;;;;;;22.00;43.00;;;;;;5034975;28;20011;-44
2022/03/05 05:16:02;;;;;;;;;;;22.00;43.00;;;;;;5033896;28;20372;-45
2022/03/05 05:18:29;;;;;;;;;;;22.00;43.00;;;;;;5034532;28;19929;-45
2022/03/05 05:20:56;;;;;;;;;;;22.00;43.00;;;;;;5055263;28;19928;-43
2022/03/05 05:23:23;;;;;;;;;;;22.00;43.00;;;;;;5075152;28;19924;-47
2022/03/05 05:25:50;;;;;;;;;;;22.00;43.00;;;;;;5074536;28;19959;-51
2022/03/05 05:28:17;;;;;;;;;;;22.00;43.00;;;;;;5074491;28;19956;-48
2022/03/05 05:30:46;;;;;;;;;;;22.00;43.00;;;;;;5073567;28;20391;-49
2022/03/05 05:33:13;;;;;;;;;;;22.00;43.00;;;;;;5074190;28;19924;-48
2022/03/05 05:35:40;;;;;;;;;;;22.00;43.00;;;;;;5073380;28;19925;-46
2022/03/05 05:38:07;;;;;;;;;;;22.00;43.00;;;;;;5073955;28;19925;-47
2022/03/05 05:40:35;;;;;;;;;;;22.00;43.00;;;;;;5057065;28;20311;-52
2022/03/05 05:43:02;;;;;;;;;;;22.00;43.00;;;;;;5074301;28;19924;-45
2022/03/05 05:45:29;;;;;;;;;;;22.00;43.00;;;;;;5073160;28;19963;-50
2022/03/05 05:47:58;;;;;;;;;;;22.00;43.00;;;;;;5074653;28;20023;-44
2022/03/05 05:50:25;;;;;;;;;;;22.00;43.00;;;;;;5072880;28;20464;-46
2022/03/05 05:52:52;;;;;;;;;;;22.00;43.00;;;;;;5073931;28;20023;-47
2022/03/05 05:55:19;;;;;;;;;;;22.00;43.00;;;;;;5074023;28;20307;-45
2022/03/05 05:57:46;;;;;;;;;;;22.00;43.00;;;;;;5073765;28;19974;-44
2022/03/05 06:00:13;;;;;;;;;;;22.00;43.00;;;;;;5073199;28;19989;-45
2022/03/05 06:02:40;;;;;;;;;;;22.00;43.00;;;;;;5073522;28;19963;-48
2022/03/05 06:05:07;;;;;;;;;;;22.00;43.00;;;;;;5072740;28;21351;-45
2022/03/05 06:07:34;;;;;;;;;;;22.00;43.00;;;;;;5073660;28;19978;-45
2022/03/05 06:10:02;;;;;;;;;;;22.00;42.90;;;;;;5073844;28;19993;-46
2022/03/05 06:12:29;;;;;;;;;;;22.00;42.90;;;;;;5055744;28;19928;-47
2022/03/05 06:14:56;;;;;;;;;;;22.00;42.90;;;;;;5073420;28;19928;-46
2022/03/05 06:17:23;;;;;;;;;;;22.00;42.90;;;;;;5072932;28;19925;-43
2022/03/05 06:19:50;;;;;;;;;;;22.00;42.90;;;;;;5073210;28;19928;-46
2022/03/05 06:22:17;;;;;;;;;;;22.00;42.80;;;;;;5072420;28;19924;-46
2022/03/05 06:24:43;;;;;;;;;;;22.00;42.80;;;;;;5073222;28;19974;-45
2022/03/05 06:27:10;;;;;;;;;;;22.00;42.80;;;;;;5055817;28;20016;-43
2022/03/05 06:29:37;;;;;;;;;;;22.00;42.80;;;;;;5073279;28;19924;-48
2022/03/05 06:32:05;;;;;;;;;;;22.00;42.80;;;;;;5072689;28;19971;-45
2022/03/05 06:34:32;;;;;;;;;;;22.00;42.70;;;;;;5073171;28;19932;-44
2022/03/05 06:37:02;;;;;;;;;;;22.00;42.70;;;;;;5072181;28;20411;-44
2022/03/05 06:39:29;;;;;;;;;;;22.00;42.70;;;;;;5073502;28;19982;-44
2022/03/05 06:41:57;;;;;;;;;;;22.00;42.70;;;;;;5055481;28;19933;-44
2022/03/05 06:44:24;;;;;;;;;;;22.00;42.70;;;;;;5073000;28;19933;-46
2022/03/05 06:46:51;;;;;;;;;;;22.10;42.70;;;;;;5072362;28;20388;-44
2022/03/05 06:49:18;;;;;;;;;;;22.10;42.70;;;;;;5073798;28;19929;-43
2022/03/05 06:51:45;;;;;;;;;;;22.10;42.60;;;;;;5071949;28;20023;-46
2022/03/05 06:54:12;;;;;;;;;;;22.10;42.60;;;;;;5072977;28;19931;-43
2022/03/05 06:56:39;;;;;;;;;;;22.10;42.60;;;;;;5073213;28;19935;-45
2022/03/05 06:59:06;;;;;;;;;;;22.10;42.60;;;;;;5072925;28;20380;-43
2022/03/05 07:01:34;;;;;;;;;;;22.10;42.50;;;;;;5072329;28;20295;-45
2022/03/05 07:04:02;;;;;;;;;;;22.10;42.60;;;;;;5077029;28;20380;-46
2022/03/05 07:06:29;;;;;;;;;;;22.10;42.50;;;;;;5076044;28;19925;-44
2022/03/05 07:08:57;;;;;;;;;;;22.10;42.50;;;;;;5077229;28;20346;-45
2022/03/05 07:11:24;;;;;;;;;;;22.10;42.40;;;;;;5076938;28;20346;-46
2022/03/05 07:13:51;;;;;;;;;;;22.10;42.40;;;;;;5077252;28;20291;-44
2022/03/05 07:16:18;;;;;;;;;;;22.10;42.40;;;;;;5076018;28;19924;-45
2022/03/05 07:18:45;;;;;;;;;;;22.10;42.40;;;;;;5076667;28;19974;-45
2022/03/05 07:21:12;;;;;;;;;;;22.10;42.40;;;;;;5075512;28;19924;-46
2022/03/05 07:23:39;;;;;;;;;;;22.20;42.40;;;;;;5076645;28;20377;-43
2022/03/05 07:26:06;;;;;;;;;;;22.20;42.40;;;;;;5076581;28;19925;-44
2022/03/05 07:28:33;;;;;;;;;;;22.20;42.30;;;;;;5076843;28;19974;-45
2022/03/05 07:31:00;;;;;;;;;;;22.20;42.30;;;;;;5076490;28;19924;-45
2022/03/05 07:33:27;;;;;;;;;;;22.20;42.30;;;;;;5076021;28;19928;-45
2022/03/05 07:35:54;;;;;;;;;;;22.20;42.30;;;;;;5075590;28;19924;-45
2022/03/05 07:38:22;;;;;;;;;;;22.20;42.30;;;;;;5076225;28;19977;-46
2022/03/05 07:40:49;;;;;;;;;;;22.20;42.20;;;;;;5076612;28;20338;-46
2022/03/05 07:43:16;;;;;;;;;;;22.20;42.20;;;;;;5076262;28;19925;-43
2022/03/05 07:45:43;;;;;;;;;;;22.20;42.10;;;;;;5076475;28;19924;-49
2022/03/05 07:48:09;;;;;;;;;;;22.20;42.10;;;;;;5075422;28;19935;-44
2022/03/05 07:50:37;;;;;;;;;;;22.20;42.10;;;;;;5076091;28;19981;-43
2022/03/05 07:53:04;;;;;;;;;;;22.20;42.10;;;;;;5075138;28;19924;-43
2022/03/05 07:55:31;;;;;;;;;;;22.30;42.10;;;;;;5076395;28;19985;-44
2022/03/05 07:57:58;;;;;;;;;;;22.30;42.10;;;;;;5075947;28;19924;-48
2022/03/05 08:00:25;;;;;;;;;;;22.30;42.10;;;;;;5075963;28;19928;-43
2022/03/05 08:02:52;;;;;;;;;;;22.30;42.00;;;;;;5075428;28;19969;-43
2022/03/05 08:05:20;;;;;;;;;;;22.30;42.00;;;;;;5076124;28;19932;-45
2022/03/05 08:07:47;;;;;;;;;;;22.30;41.90;;;;;;5074830;28;19932;-43
2022/03/05 08:10:15;;;;;;;;;;;22.30;41.90;;;;;;5075801;28;20342;-42
2022/03/05 08:12:42;;;;;;;;;;;22.40;41.90;;;;;;5075986;28;19924;-46
2022/03/05 08:15:09;;;;;;;;;;;22.30;41.90;;;;;;5076865;28;19929;-48
2022/03/05 08:17:36;;;;;;;;;;;22.40;41.90;;;;;;5075263;28;19978;-44
2022/03/05 08:20:03;;;;;;;;;;;22.40;41.90;;;;;;5075485;28;19928;-44
2022/03/05 08:22:31;;;;;;;;;;;22.40;41.90;;;;;;5063944;28;19925;-45
2022/03/05 08:24:58;;;;;;;;;;;22.40;41.80;;;;;;5055545;28;19928;-45
2022/03/05 08:27:25;;;;;;;;;;;22.40;41.80;;;;;;5054316;28;19979;-45
2022/03/05 08:29:52;;;;;;;;;;;22.40;41.80;;;;;;5055473;28;19932;-44
2022/03/05 08:32:19;;;;;;;;;;;22.40;41.80;;;;;;5058379;28;20334;-47
2022/03/05 08:34:46;;;;;;;;;;;22.40;41.90;;;;;;5075678;28;19963;-46
2022/03/05 08:37:14;;;;;;;;;;;22.40;41.80;;;;;;5067999;28;19971;-51
2022/03/05 08:39:41;;;;;;;;;;;22.40;41.80;;;;;;5055349;28;19997;-43
2022/03/05 08:42:09;;;;;;;;;;;22.30;41.80;;;;;;5055018;28;20329;-51
2022/03/05 08:44:40;;;;;;;;;;;22.30;41.80;;;;;;5055039;28;20384;-50
2022/03/05 08:47:07;;;;;;;;;;;22.30;41.80;;;;;;5055234;28;19931;-51
2022/03/05 08:49:34;;;;;;;;;;;22.30;41.80;;;;;;5075314;28;19928;-49
2022/03/05 08:52:01;;;;;;;;;;;22.30;41.80;;;;;;5074083;28;19924;-51
2022/03/05 08:54:28;;;;;;;;;;;22.30;41.80;;;;;;5074957;28;19928;-49
2022/03/05 08:56:55;;;;;;;;;;;22.30;41.80;;;;;;5074942;28;19924;-45
2022/03/05 08:59:22;;;;;;;;;;;22.30;41.80;;;;;;5074895;28;19925;-43
2022/03/05 09:01:49;;;;;;;;;;;22.30;41.80;;;;;;5075043;28;19924;-44
2022/03/05 09:04:16;;;;;;;;;;;22.30;41.80;;;;;;5057471;28;19924;-44
2022/03/05 09:06:43;;;;;;;;;;;22.30;41.70;;;;;;5054238;28;19979;-45
2022/03/05 09:09:10;;;;;;;;;;;22.40;41.80;;;;;;5056637;28;20388;-45
2022/03/05 09:11:38;;;;;;;;;;;22.40;41.80;;;;;;5074558;28;19978;-43
2022/03/05 09:14:05;;;;;;;;;;;22.40;41.70;;;;;;5074911;28;19925;-46
2022/03/05 09:16:35;;;;;;;;;;;22.40;41.70;;;;;;5074873;28;20362;-45
2022/03/05 09:19:02;;;;;;;;;;;22.40;41.60;;;;;;5074053;28;20218;-49
2022/03/05 09:21:29;;;;;;;;;;;22.50;41.60;;;;;;5052887;28;19925;-43
2022/03/05 09:23:56;;;;;;;;;;;22.50;41.60;;;;;;5053969;28;19999;-43
2022/03/05 09:26:23;;;;;;;;;;;22.50;41.50;;;;;;5053829;28;19983;-44
2022/03/05 09:28:50;;;;;;;;;;;22.50;41.40;;;;;;5054642;28;19936;-47
2022/03/05 09:31:17;;;;;;;;;;;22.50;41.40;;;;;;5054229;28;19925;-45
2022/03/05 09:33:44;;;;;;;;;;;22.60;41.40;;;;;;5053461;28;19931;-44
2022/03/05 09:36:11;;;;;;;;;;;22.60;41.30;;;;;;5054435;28;19928;-44
2022/03/05 09:38:38;;;;;;;;;;;22.60;41.30;;;;;;5053263;28;19925;-49
2022/03/05 09:41:06;;;;;;;;;;;22.70;41.30;;;;;;5054374;28;19971;-45
2022/03/05 09:43:34;;;;;;;;;;;22.70;41.20;;;;;;5054254;28;20361;-45
2022/03/05 09:46:01;;;;;;;;;;;22.70;41.20;;;;;;5054048;28;19924;-44
2022/03/05 09:48:30;;;;;;;;;;;22.70;41.10;;;;;;5053251;28;19972;-46
2022/03/05 09:50:58;;;;;;;;;;;22.70;41.00;;;;;;5053724;28;19931;-45
2022/03/05 09:53:28;;;;;;;;;;;22.80;41.00;;;;;;5053296;28;19960;-44
2022/03/05 09:55:55;;;;;;;;;;;22.80;41.00;;;;;;5054100;28;19976;-45
2022/03/05 09:58:42;;;;;;;;;;;22.80;40.90;;;;;;5053749;28;19925;-45
2022/03/05 10:01:09;;;;;;;;;;;22.80;40.80;;;;;;5053705;28;19964;-46
2022/03/05 10:03:47;;;;;;;;;;;22.80;40.80;;;;;;5053676;28;19925;-44
2022/03/05 10:06:16;;;;;;;;;;;22.80;40.70;;;;;;5053522;28;19929;-45
2022/03/05 10:08:43;;;;;;;;;;;22.90;40.80;;;;;;5053096;28;19967;-44
2022/03/05 10:11:12;;;;;;;;;;;22.90;40.70;;;;;;5053858;28;19929;-43
2022/03/05 10:13:40;;;;;;;;;;;22.90;40.60;;;;;;5053445;28;20476;-43
2022/03/05 10:16:28;;;;;;;;;;;22.90;40.60;;;;;;5053473;28;19925;-45
2022/03/05 10:18:57;;;;;;;;;;;23.00;40.60;;;;;;5052684;28;19960;-42
2022/03/05 10:21:29;;;;;;;;;;;23.00;40.60;;;;;;5067864;28;19925;-44
2022/03/05 10:24:06;;;;;;;;;;;23.00;40.50;;;;;;5055378;28;20353;-44
2022/03/05 10:26:54;;;;;;;;;;;23.00;40.40;;;;;;5073564;28;20371;-42
2022/03/05 10:29:22;;;;;;;;;;;23.00;40.40;;;;;;5073213;28;19979;-42
2022/03/05 10:31:57;;;;;;;;;;;23.10;40.50;;;;;;5073231;28;19970;-44
2022/03/05 10:34:24;;;;;;;;;;;23.10;40.50;;;;;;5072466;28;19955;-44
2022/03/05 10:37:02;;;;;;;;;;;23.10;40.40;;;;;;5072526;28;20276;-44
2022/03/05 10:39:32;;;;;;;;;;;23.10;40.40;;;;;;5072632;28;19924;-44
2022/03/05 10:41:59;;;;;;;;;;;23.10;40.40;;;;;;5073317;28;19924;-42
2022/03/05 10:44:26;;;;;;;;;;;23.10;40.30;;;;;;5073056;28;20007;-42
2022/03/05 10:46:56;;;;;;;;;;;23.10;40.30;;;;;;5073375;28;19928;-45
2022/03/05 10:49:23;;;;;;;;;;;23.10;40.30;;;;;;5072567;28;19929;-45
2022/03/05 10:52:10;;;;;;;;;;;23.10;40.30;;;;;;5073186;28;20011;-44
2022/03/05 10:54:39;;;;;;;;;;;23.10;40.30;;;;;;5072608;28;19931;-44
2022/03/05 10:57:10;;;;;;;;;;;23.10;40.20;;;;;;5072970;28;19928;-43
2022/03/05 10:59:39;;;;;;;;;;;23.10;40.20;;;;;;5073094;28;19970;-42
2022/03/05 11:02:07;;;;;;;;;;;23.10;40.20;;;;;;5072822;28;19958;-42
2022/03/05 11:04:35;;;;;;;;;;;23.10;40.10;;;;;;5072035;28;19924;-44
2022/03/05 11:07:03;;;;;;;;;;;23.10;40.10;;;;;;5073005;28;20338;-44
2022/03/05 11:09:31;;;;;;;;;;;23.10;40.10;;;;;;5072380;28;20277;-42
2022/03/05 11:12:00;;;;;;;;;;;23.20;40.10;;;;;;5073209;28;20354;-42
2022/03/05 11:14:27;;;;;;;;;;;23.20;40.10;;;;;;5072805;28;19932;-44
2022/03/05 11:16:56;;;;;;;;;;;23.20;40.10;;;;;;5072848;28;19932;-43
2022/03/05 11:19:23;;;;;;;;;;;23.20;40.10;;;;;;5072262;28;19978;-45
2022/03/05 11:21:51;;;;;;;;;;;23.20;40.10;;;;;;5072580;28;19928;-45
2022/03/05 11:24:19;;;;;;;;;;;23.20;40.10;;;;;;5072113;28;20043;-43
2022/03/05 11:26:50;;;;;;;;;;;23.20;40.00;;;;;;5072949;28;19963;-42
2022/03/05 11:29:51;;;;;;;;;;;23.20;40.00;;;;;;5073474;28;19931;-44
2022/03/05 11:32:18;;;;;;;;;;;23.30;40.00;;;;;;5072662;28;20412;-42
2022/03/05 11:34:47;;;;;;;;;;;23.30;39.90;;;;;;5065170;28;19968;-44
2022/03/05 11:37:15;;;;;;;;;;;23.30;39.80;;;;;;5052418;28;19925;-44
2022/03/05 11:39:42;;;;;;;;;;;23.30;39.80;;;;;;5063471;28;20392;-42
2022/03/05 11:42:09;;;;;;;;;;;23.30;39.80;;;;;;5072816;28;19931;-45
2022/03/05 11:44:36;;;;;;;;;;;23.40;39.80;;;;;;5073432;28;20427;-44
2022/03/05 11:47:18;;;;;;;;;;;23.40;39.80;;;;;;5072512;28;19978;-43
2022/03/05 11:50:01;;;;;;;;;;;23.40;39.80;;;;;;5075279;28;19977;-51
2022/03/05 11:52:43;;;;;;;;;;;23.40;39.70;;;;;;5076271;28;19963;-50
2022/03/05 11:55:16;;;;;;;;;;;23.40;39.70;;;;;;5075265;28;19950;-48
2022/03/05 11:57:52;;;;;;;;;;;23.40;39.70;;;;;;5076051;28;19959;-47
2022/03/05 12:00:25;;;;;;;;;;;23.40;39.70;;;;;;5075969;28;19975;-52
2022/03/05 12:02:56;;;;;;;;;;;23.40;39.60;;;;;;5076206;28;19924;-49
2022/03/05 12:05:38;;;;;;;;;;;23.40;39.60;;;;;;5075229;28;19931;-50
2022/03/05 12:08:06;;;;;;;;;;;23.40;39.60;;;;;;5075728;28;19960;-47
2022/03/05 12:10:38;;;;;;;;;;;23.50;39.70;;;;;;5075307;28;20292;-49
2022/03/05 12:13:09;;;;;;;;;;;23.50;40.30;;;;;;5075810;28;20015;-46
2022/03/05 12:15:40;;;;;;;;;;;23.50;39.70;;;;;;5076061;28;19924;-47
2022/03/05 12:18:09;;;;;;;;;;;23.50;39.70;;;;;;5075763;28;19924;-44
2022/03/05 12:20:38;;;;;;;;;;;23.50;39.60;;;;;;5074790;28;19975;-48
2022/03/05 12:23:06;;;;;;;;;;;23.50;39.60;;;;;;5075666;28;19979;-46
2022/03/05 12:25:40;;;;;;;;;;;23.50;39.60;;;;;;5075066;28;19924;-43
2022/03/05 12:28:19;;;;;;;;;;;23.50;39.60;;;;;;5075554;28;19925;-46
2022/03/05 12:30:46;;;;;;;;;;;23.50;39.60;;;;;;5075504;28;19970;-48
2022/03/05 12:33:14;;;;;;;;;;;23.50;39.60;;;;;;5075339;28;19924;-46
2022/03/05 12:35:42;;;;;;;;;;;23.50;39.60;;;;;;5074595;28;20324;-48
2022/03/05 12:38:10;;;;;;;;;;;23.50;39.60;;;;;;5075221;28;19925;-44
2022/03/05 12:40:37;;;;;;;;;;;23.50;39.60;;;;;;5074850;28;19925;-46
2022/03/05 12:43:05;;;;;;;;;;;23.50;39.60;;;;;;5075448;28;20000;-45
2022/03/05 12:45:34;;;;;;;;;;;23.50;39.60;;;;;;5075448;28;19970;-42
2022/03/05 12:48:08;;;;;;;;;;;23.50;39.60;;;;;;5075457;28;19929;-43
2022/03/05 12:50:36;;;;;;;;;;;23.50;39.60;;;;;;5074683;28;20295;-47
2022/03/05 12:53:06;;;;;;;;;;;23.50;39.60;;;;;;5075204;28;19925;-47
2022/03/05 12:55:36;;;;;;;;;;;23.50;39.60;;;;;;5074232;28;19978;-45
2022/03/05 12:58:08;;;;;;;;;;;23.50;39.60;;;;;;5074923;28;19925;-44
2022/03/05 13:00:35;;;;;;;;;;;23.50;39.50;;;;;;5074329;28;19963;-44
2022/03/05 13:03:03;;;;;;;;;;;23.50;39.60;;;;;;5061334;28;19932;-46
2022/03/05 13:05:30;;;;;;;;;;;23.50;39.60;;;;;;5058954;28;20392;-43
2022/03/05 13:07:57;;;;;;;;;;;23.50;39.60;;;;;;5074973;28;19924;-46
2022/03/05 13:10:25;;;;;;;;;;;23.50;39.60;;;;;;5073906;28;19978;-45
2022/03/05 13:12:53;;;;;;;;;;;23.50;39.60;;;;;;5074519;28;19947;-42
2022/03/05 13:15:22;;;;;;;;;;;23.50;39.60;;;;;;5074522;28;19947;-44
2022/03/05 13:17:49;;;;;;;;;;;23.50;39.60;;;;;;5056734;28;19978;-43
2022/03/05 13:20:17;;;;;;;;;;;23.50;39.60;;;;;;5073912;28;19982;-43
2022/03/05 13:22:47;;;;;;;;;;;23.50;40.10;;;;;;5074448;28;19954;-44
2022/03/05 13:25:14;;;;;;;;;;;23.50;39.70;;;;;;5074042;28;20087;-46
2022/03/05 13:27:42;;;;;;;;;;;23.50;39.70;;;;;;5074317;28;20388;-45
2022/03/05 13:30:16;;;;;;;;;;;23.50;39.70;;;;;;5074543;28;19990;-43
2022/03/05 13:32:47;;;;;;;;;;;23.50;39.70;;;;;;5056913;28;19946;-44
2022/03/05 13:35:15;;;;;;;;;;;23.50;39.70;;;;;;5074211;28;20019;-46
2022/03/05 13:37:46;;;;;;;;;;;23.50;39.70;;;;;;5073594;28;19956;-42
2022/03/05 13:40:14;;;;;;;;;;;23.50;39.80;;;;;;5073510;28;19972;-44
2022/03/05 13:42:48;;;;;;;;;;;23.50;39.80;;;;;;5074198;28;19971;-45
2022/03/05 13:45:15;;;;;;;;;;;23.50;39.80;;;;;;5074392;28;19951;-45
2022/03/05 13:47:45;;;;;;;;;;;23.50;39.80;;;;;;5073933;28;19931;-43
2022/03/05 13:50:14;;;;;;;;;;;23.50;39.80;;;;;;5073949;28;19931;-45
2022/03/05 13:52:54;;;;;;;;;;;23.50;39.80;;;;;;5072915;28;19932;-44
2022/03/05 13:55:21;;;;;;;;;;;23.50;39.80;;;;;;5072982;28;20380;-44
2022/03/05 13:57:54;;;;;;;;;;;23.50;39.90;;;;;;5074020;28;19960;-45
2022/03/05 14:00:24;;;;;;;;;;;23.50;39.90;;;;;;5073736;28;19924;-45
2022/03/05 14:02:52;;;;;;;;;;;23.50;39.90;;;;;;5073848;28;19978;-43
2022/03/05 14:05:28;;;;;;;;;;;23.50;39.90;;;;;;5073919;28;19931;-47
2022/03/05 14:08:02;;;;;;;;;;;23.50;39.90;;;;;;5073131;28;19972;-44
2022/03/05 14:10:30;;;;;;;;;;;23.50;39.90;;;;;;5072671;28;19979;-47
2022/03/05 14:12:58;;;;;;;;;;;23.50;39.90;;;;;;5073528;28;20383;-43
2022/03/05 14:15:26;;;;;;;;;;;23.50;40.00;;;;;;5073740;28;19960;-43
2022/03/05 14:18:03;;;;;;;;;;;23.50;40.00;;;;;;5073783;28;19977;-43
2022/03/05 14:20:40;;;;;;;;;;;23.50;40.00;;;;;;5073424;28;19968;-46
2022/03/05 14:23:12;;;;;;;;;;;23.50;40.00;;;;;;5072275;28;19925;-46
2022/03/05 14:25:39;;;;;;;;;;;23.50;40.00;;;;;;5073465;28;20236;-46